Time;durP1;ratioP1;P1;durP2;ratioP2;P2;SDS_P1;SDS_P2;PMS_P1;PMS_P2;Temp;Humidity;BMP_temperature;BMP_pressure;BME280_temperature;BME280_humidity;BME280_pressure;Samples;Min_cycle;Max_cycle;Signal;HPM_P1;HPM_P2
2023/06/26 00:00:19;;;;;;;7.18;6.57;;;23.00;99.90;;;;;;4978697;28;20038;-73
2023/06/26 00:02:45;;;;;;;7.68;6.72;;;22.90;99.90;;;;;;4966769;28;20074;-73
2023/06/26 00:05:11;;;;;;;8.32;6.68;;;22.90;99.90;;;;;;4958488;28;20068;-73
2023/06/26 00:07:36;;;;;;;6.93;6.18;;;22.80;99.90;;;;;;4975304;28;20084;-72
2023/06/26 00:10:03;;;;;;;7.75;7.00;;;22.80;99.90;;;;;;4982302;28;20852;-72
2023/06/26 00:12:30;;;;;;;7.97;6.93;;;22.80;99.90;;;;;;4987385;28;20133;-73
2023/06/26 00:14:56;;;;;;;8.50;6.47;;;22.70;99.90;;;;;;4967813;28;20108;-74
2023/06/26 00:17:22;;;;;;;8.20;7.03;;;22.70;99.90;;;;;;4977733;28;20065;-74
2023/06/26 00:19:48;;;;;;;8.57;7.13;;;22.70;99.90;;;;;;4978999;28;20301;-73
2023/06/26 00:22:14;;;;;;;8.05;7.25;;;22.70;99.90;;;;;;4983029;28;20136;-74
2023/06/26 00:24:39;;;;;;;9.57;7.38;;;22.70;99.90;;;;;;4980908;28;20038;-74
2023/06/26 00:27:05;;;;;;;8.13;7.43;;;22.70;99.90;;;;;;4977327;28;20037;-72
2023/06/26 00:29:31;;;;;;;8.70;7.68;;;22.80;99.90;;;;;;4960651;28;20053;-74
2023/06/26 00:31:57;;;;;;;8.55;7.75;;;22.70;99.90;;;;;;4980180;28;20293;-74
2023/06/26 00:34:23;;;;;;;9.52;8.18;;;22.70;99.90;;;;;;4985242;28;20189;-74
2023/06/26 00:36:48;;;;;;;9.85;7.82;;;22.70;99.90;;;;;;4984885;28;20045;-74
2023/06/26 00:39:15;;;;;;;8.70;7.53;;;22.60;99.90;;;;;;4985446;28;20076;-73
2023/06/26 00:41:41;;;;;;;9.40;8.50;;;22.70;99.90;;;;;;4980863;28;20116;-73
2023/06/26 00:44:07;;;;;;;9.10;8.30;;;22.70;99.90;;;;;;4978020;28;20046;-73
2023/06/26 00:46:34;;;;;;;10.13;8.40;;;22.60;99.90;;;;;;4978522;28;21043;-74
2023/06/26 00:49:01;;;;;;;8.20;7.40;;;22.70;99.90;;;;;;4977040;28;20526;-74
2023/06/26 00:51:29;;;;;;;10.68;7.75;;;22.60;99.90;;;;;;4983660;28;20053;-73
2023/06/26 00:53:57;;;;;;;8.68;7.80;;;22.60;99.90;;;;;;4979605;28;20116;-73
2023/06/26 00:56:23;;;;;;;8.73;7.93;;;22.60;99.90;;;;;;4981540;28;20675;-72
2023/06/26 00:58:49;;;;;;;8.98;8.07;;;22.60;99.90;;;;;;4994051;28;20053;-72
2023/06/26 01:01:17;;;;;;;9.02;8.13;;;22.50;99.90;;;;;;5006027;28;20198;-75
2023/06/26 01:03:51;;;;;;;9.20;8.40;;;22.50;99.90;;;;;;5007801;28;20061;-76
2023/06/26 01:06:18;;;;;;;9.20;8.30;;;22.50;99.90;;;;;;4988080;28;20133;-75
2023/06/26 01:08:45;;;;;;;9.68;8.32;;;22.50;99.90;;;;;;4983796;28;20568;-75
2023/06/26 01:11:12;;;;;;;9.25;8.38;;;22.40;99.90;;;;;;4981640;28;20129;-74
2023/06/26 01:13:39;;;;;;;9.07;8.25;;;22.40;99.90;;;;;;4985270;28;20097;-73
2023/06/26 01:16:05;;;;;;;9.30;7.90;;;22.40;99.90;;;;;;4983996;28;20050;-73
2023/06/26 01:18:32;;;;;;;9.35;8.45;;;22.40;99.90;;;;;;4974697;28;20461;-74
2023/06/26 01:21:01;;;;;;;8.88;8.13;;;22.40;99.90;;;;;;4979466;28;20475;-75
2023/06/26 01:24:14;;;;;;;9.20;8.40;;;22.40;99.90;;;;;;4980137;28;20053;-75
2023/06/26 01:26:42;;;;;;;12.07;8.27;;;22.40;99.90;;;;;;4986836;28;20050;-75
2023/06/26 01:29:10;;;;;;;9.55;8.63;;;22.40;99.90;;;;;;4994379;28;20136;-73
2023/06/26 01:31:36;;;;;;;8.70;7.65;;;22.40;99.90;;;;;;4995879;28;20410;-75
2023/06/26 01:34:02;;;;;;;8.82;8.02;;;22.40;99.90;;;;;;4989897;28;20609;-73
2023/06/26 01:36:28;;;;;;;10.65;8.25;;;22.40;99.90;;;;;;4981211;28;20037;-74
2023/06/26 01:38:54;;;;;;;9.13;8.18;;;22.40;99.90;;;;;;4981772;28;20046;-74
2023/06/26 01:41:20;;;;;;;8.65;7.85;;;22.40;99.90;;;;;;4977175;28;20051;-73
2023/06/26 01:44:07;;;;;;;8.35;7.55;;;22.40;99.90;;;;;;4960589;28;20062;-74
2023/06/26 01:46:46;;;;;;;8.98;8.18;;;22.30;99.90;;;;;;4976768;28;20054;-74
2023/06/26 01:49:33;;;;;;;7.85;7.18;;;22.30;99.90;;;;;;4983229;28;20428;-75
2023/06/26 01:52:08;;;;;;;8.43;7.63;;;22.30;99.90;;;;;;4959894;28;20324;-73
2023/06/26 01:54:38;;;;;;;8.27;7.50;;;22.40;99.90;;;;;;4977884;28;20557;-73
2023/06/26 01:57:06;;;;;;;9.07;8.25;;;22.40;99.90;;;;;;4977704;28;20054;-74
2023/06/26 01:59:34;;;;;;;8.23;7.53;;;22.40;99.90;;;;;;4975092;28;20141;-75
2023/06/26 02:02:01;;;;;;;8.90;8.13;;;22.30;99.90;;;;;;4974108;28;20642;-75
2023/06/26 02:04:27;;;;;;;8.82;7.95;;;22.30;99.90;;;;;;4978910;28;20099;-75
2023/06/26 02:06:52;;;;;;;8.60;7.90;;;22.30;99.90;;;;;;4977312;28;20042;-75
2023/06/26 02:09:19;;;;;;;8.35;7.55;;;22.30;99.90;;;;;;4938713;28;20072;-74
2023/06/26 02:11:45;;;;;;;7.82;7.13;;;22.30;99.90;;;;;;4974086;28;20157;-74
2023/06/26 02:14:12;;;;;;;8.50;7.68;;;22.30;99.90;;;;;;4975199;28;20084;-72
2023/06/26 02:16:38;;;;;;;9.27;8.23;;;22.30;99.90;;;;;;4959504;28;20592;-75
2023/06/26 02:19:03;;;;;;;8.38;7.57;;;22.40;99.90;;;;;;4981006;28;20038;-74
2023/06/26 02:21:29;;;;;;;8.32;7.63;;;22.30;99.90;;;;;;4987946;28;20050;-74
2023/06/26 02:23:55;;;;;;;8.68;7.68;;;22.30;99.90;;;;;;4976039;28;21548;-74
2023/06/26 02:26:20;;;;;;;8.65;7.85;;;22.40;99.90;;;;;;4981172;28;20700;-74
2023/06/26 02:28:46;;;;;;;10.25;8.18;;;22.30;99.90;;;;;;4976872;28;20120;-73
2023/06/26 02:31:12;;;;;;;10.05;8.00;;;22.30;99.90;;;;;;4977039;28;21173;-74
2023/06/26 02:33:38;;;;;;;9.05;8.02;;;22.30;99.90;;;;;;4954753;28;20331;-74
2023/06/26 02:36:04;;;;;;;9.82;8.88;;;22.20;99.90;;;;;;4980433;28;20720;-73
2023/06/26 02:38:30;;;;;;;9.07;8.18;;;22.20;99.90;;;;;;4967736;28;20045;-73
2023/06/26 02:40:56;;;;;;;9.52;8.52;;;22.10;99.90;;;;;;4981017;28;20042;-73
2023/06/26 02:43:21;;;;;;;10.32;9.10;;;22.10;99.90;;;;;;4977195;28;20086;-72
2023/06/26 02:45:47;;;;;;;10.07;9.13;;;22.00;99.90;;;;;;4977780;28;20658;-74
2023/06/26 02:48:13;;;;;;;9.63;8.73;;;21.90;99.90;;;;;;4980467;28;20942;-73
2023/06/26 02:50:38;;;;;;;9.77;8.77;;;21.90;99.90;;;;;;4980856;28;20050;-74
2023/06/26 02:53:04;;;;;;;9.85;8.85;;;21.80;99.90;;;;;;4978448;28;20057;-74
2023/06/26 02:55:30;;;;;;;9.40;8.50;;;21.80;99.90;;;;;;4976468;28;20791;-73
2023/06/26 02:57:55;;;;;;;10.18;9.10;;;21.80;99.90;;;;;;4979943;28;20574;-74
2023/06/26 03:00:21;;;;;;;10.05;9.10;;;21.70;99.90;;;;;;4958897;28;20053;-73
2023/06/26 03:02:47;;;;;;;10.43;9.43;;;21.70;99.90;;;;;;4972067;28;20058;-74
2023/06/26 03:05:13;;;;;;;10.15;9.15;;;21.60;1.00;;;;;;4979344;28;20080;-74
2023/06/26 03:07:38;;;;;;;10.57;9.48;;;21.50;1.00;;;;;;4957446;28;20542;-72
2023/06/26 03:10:05;;;;;;;11.43;10.43;;;21.50;1.00;;;;;;4977985;28;20042;-72
2023/06/26 03:12:31;;;;;;;10.55;9.48;;;21.40;1.00;;;;;;4976389;28;20576;-73
2023/06/26 03:14:56;;;;;;;10.57;9.30;;;21.40;1.00;;;;;;4986373;28;20054;-73
2023/06/26 03:17:22;;;;;;;10.80;9.80;;;21.40;1.00;;;;;;4981764;28;20085;-74
2023/06/26 03:19:48;;;;;;;13.38;11.10;;;21.40;1.00;;;;;;4986810;28;20045;-72
2023/06/26 03:22:14;;;;;;;11.07;10.13;;;21.40;1.00;;;;;;4971905;28;20112;-72
2023/06/26 03:24:39;;;;;;;11.48;10.40;;;21.40;1.00;;;;;;4986248;28;20065;-72
2023/06/26 03:27:05;;;;;;;11.95;10.80;;;21.30;1.00;;;;;;4983805;28;20057;-73
2023/06/26 03:29:31;;;;;;;12.77;10.75;;;21.30;1.00;;;;;;4983581;28;20468;-74
2023/06/26 03:31:57;;;;;;;11.75;10.65;;;21.30;1.00;;;;;;4982441;28;20043;-73
2023/06/26 03:34:22;;;;;;;12.48;11.18;;;21.30;1.00;;;;;;4983379;28;20079;-74
2023/06/26 03:36:48;;;;;;;13.10;11.88;;;21.30;1.00;;;;;;4980122;28;20057;-74
2023/06/26 03:39:14;;;;;;;12.82;11.52;;;21.20;1.00;;;;;;4968379;28;20038;-74
2023/06/26 03:41:39;;;;;;;13.05;11.82;;;21.20;1.00;;;;;;4980128;28;20555;-74
2023/06/26 03:44:05;;;;;;;12.60;11.30;;;21.20;1.00;;;;;;4975160;28;20832;-74
2023/06/26 03:46:31;;;;;;;13.73;11.25;;;21.20;1.00;;;;;;4984085;28;20178;-74
2023/06/26 03:48:56;;;;;;;11.70;10.70;;;21.20;1.00;;;;;;4984838;28;20073;-73
2023/06/26 03:51:22;;;;;;;12.50;10.88;;;21.20;1.00;;;;;;4983001;28;20089;-72
2023/06/26 03:53:48;;;;;;;11.13;10.13;;;21.20;1.00;;;;;;4982543;28;20125;-75
2023/06/26 03:56:14;;;;;;;11.50;10.38;;;21.30;1.00;;;;;;4954255;28;20049;-73
2023/06/26 03:58:39;;;;;;;11.20;10.20;;;21.30;1.00;;;;;;4983821;28;20145;-75
2023/06/26 04:01:05;;;;;;;11.20;10.20;;;21.30;1.00;;;;;;4984587;28;20521;-73
2023/06/26 04:03:31;;;;;;;11.52;10.52;;;21.40;1.00;;;;;;4982836;28;20041;-75
2023/06/26 04:05:57;;;;;;;11.50;10.30;;;21.40;1.00;;;;;;4981397;28;20034;-73
2023/06/26 04:08:27;;;;;;;10.45;9.48;;;21.40;1.00;;;;;;4982948;28;20150;-74
2023/06/26 04:10:55;;;;;;;11.32;10.32;;;21.40;1.00;;;;;;4965438;28;20034;-73
2023/06/26 04:13:20;;;;;;;11.48;10.38;;;21.30;1.00;;;;;;4981695;28;20053;-72
2023/06/26 04:15:46;;;;;;;10.93;9.88;;;21.30;1.00;;;;;;4979433;28;20085;-74
2023/06/26 04:18:12;;;;;;;11.65;10.45;;;21.30;1.00;;;;;;4984772;28;20041;-73
2023/06/26 04:21:02;;;;;;;11.38;10.27;;;21.30;1.00;;;;;;4980549;28;20120;-74
2023/06/26 04:23:27;;;;;;;11.00;10.02;;;21.30;1.00;;;;;;4981764;28;20041;-73
2023/06/26 04:25:53;;;;;;;11.02;9.77;;;21.20;1.00;;;;;;4981257;28;20446;-74
2023/06/26 04:28:19;;;;;;;11.45;10.30;;;21.20;1.00;;;;;;4982174;28;21096;-73
2023/06/26 04:30:45;;;;;;;10.90;10.00;;;21.20;1.00;;;;;;4981823;28;20046;-73
2023/06/26 04:33:11;;;;;;;10.60;9.50;;;21.20;8.20;;;;;;4978758;28;20485;-74
2023/06/26 04:35:37;;;;;;;10.70;9.77;;;21.20;16.80;;;;;;4979176;28;20037;-73
2023/06/26 04:38:03;;;;;;;11.60;9.98;;;21.30;23.50;;;;;;4982001;28;20116;-73
2023/06/26 04:40:29;;;;;;;11.18;10.07;;;21.30;41.80;;;;;;4988539;28;20573;-72
2023/06/26 04:42:54;;;;;;;16.33;10.10;;;21.30;58.50;;;;;;4983128;28;20547;-72
2023/06/26 04:45:20;;;;;;;11.07;9.75;;;21.40;61.40;;;;;;4981106;28;20045;-73
2023/06/26 04:47:46;;;;;;;11.85;10.48;;;21.40;60.80;;;;;;4969642;28;20058;-73
2023/06/26 04:50:11;;;;;;;10.05;9.05;;;21.50;44.60;;;;;;4981805;28;20517;-73
2023/06/26 04:52:37;;;;;;;10.35;9.27;;;21.60;27.70;;;;;;4989280;28;20073;-73
2023/06/26 04:55:03;;;;;;;10.32;9.40;;;21.70;10.60;;;;;;4977998;28;20042;-74
2023/06/26 04:57:29;;;;;;;10.60;9.50;;;21.80;1.00;;;;;;4981207;28;20042;-72
2023/06/26 04:59:55;;;;;;;10.35;9.35;;;21.90;1.00;;;;;;4979303;28;20604;-73
2023/06/26 05:02:21;;;;;;;9.52;8.55;;;22.00;1.00;;;;;;4980041;28;20046;-73
2023/06/26 05:04:48;;;;;;;10.07;9.10;;;22.10;1.00;;;;;;4962751;28;20521;-74
2023/06/26 05:07:13;;;;;;;9.70;8.68;;;22.20;1.00;;;;;;4985054;28;20493;-72
2023/06/26 05:09:39;;;;;;;8.75;7.95;;;22.30;1.00;;;;;;4979248;28;20054;-73
2023/06/26 05:12:05;;;;;;;10.40;8.25;;;22.50;1.00;;;;;;4981180;28;20077;-74
2023/06/26 05:14:31;;;;;;;9.68;7.85;;;22.60;1.00;;;;;;4979500;28;20055;-72
2023/06/26 05:16:56;;;;;;;9.65;8.25;;;22.60;1.00;;;;;;4974619;28;20721;-72
2023/06/26 05:19:22;;;;;;;11.43;8.75;;;22.50;1.00;;;;;;4964120;28;20046;-74
2023/06/26 05:21:49;;;;;;;10.23;7.40;;;22.50;1.00;;;;;;4980046;28;20684;-73
2023/06/26 05:24:16;;;;;;;11.00;8.65;;;22.40;1.00;;;;;;4978255;28;20039;-75
2023/06/26 05:26:42;;;;;;;10.35;8.05;;;22.30;30.30;;;;;;4978684;28;20091;-73
2023/06/26 05:29:08;;;;;;;9.48;8.13;;;22.30;37.70;;;;;;4981149;28;20038;-73
2023/06/26 05:31:40;;;;;;;13.95;8.77;;;22.30;44.80;;;;;;4980003;28;20046;-74
2023/06/26 05:34:07;;;;;;;9.32;7.80;;;22.30;52.30;;;;;;4971470;28;20070;-73
2023/06/26 05:36:34;;;;;;;9.60;8.43;;;22.20;79.50;;;;;;4978758;28;20041;-73
2023/06/26 05:39:00;;;;;;;14.75;9.80;;;22.00;99.90;;;;;;4962798;28;20133;-75
2023/06/26 05:41:26;;;;;;;15.80;10.82;;;21.90;99.90;;;;;;4976456;28;20477;-74
2023/06/26 05:43:54;;;;;;;17.20;10.90;;;21.80;99.90;;;;;;4979338;28;20494;-74
2023/06/26 05:46:20;;;;;;;19.95;12.13;;;21.60;99.90;;;;;;4978869;28;20046;-76
2023/06/26 05:48:47;;;;;;;16.50;11.50;;;21.40;99.90;;;;;;4985399;28;20057;-74
2023/06/26 05:51:13;;;;;;;19.50;12.00;;;21.30;99.90;;;;;;4979820;28;20817;-74
2023/06/26 05:53:39;;;;;;;16.77;11.90;;;21.00;99.90;;;;;;4976491;28;20481;-75
2023/06/26 05:56:05;;;;;;;21.33;12.00;;;20.90;1.00;;;;;;4959558;28;20081;-74
2023/06/26 05:58:32;;;;;;;20.83;11.45;;;20.80;1.00;;;;;;4978800;28;20594;-74
2023/06/26 06:00:57;;;;;;;26.40;10.65;;;20.60;1.00;;;;;;4977775;28;20045;-73
2023/06/26 06:03:23;;;;;;;32.75;11.15;;;20.30;99.90;;;;;;4977843;28;20050;-73
2023/06/26 06:05:49;;;;;;;23.63;10.55;;;19.90;99.90;;;;;;4978655;28;20670;-73
2023/06/26 06:08:15;;;;;;;22.63;8.10;;;19.50;99.90;;;;;;4978000;28;20038;-74
2023/06/26 06:10:41;;;;;;;19.75;7.13;;;19.40;1.00;;;;;;4973103;28;20045;-73
2023/06/26 06:13:07;;;;;;;19.52;7.60;;;19.20;1.00;;;;;;4973376;28;20354;-72
2023/06/26 06:15:33;;;;;;;19.08;7.40;;;19.10;99.90;;;;;;4957137;28;20092;-72
2023/06/26 06:17:58;;;;;;;17.85;6.50;;;19.10;99.90;;;;;;4980316;28;20037;-73
2023/06/26 06:20:25;;;;;;;15.88;5.85;;;19.00;99.90;;;;;;4976714;28;20081;-74
2023/06/26 06:22:50;;;;;;;17.67;5.57;;;19.00;99.90;;;;;;4975955;28;20200;-73
2023/06/26 06:25:16;;;;;;;19.98;5.80;;;19.00;99.90;;;;;;4978625;28;20049;-73
2023/06/26 06:27:43;;;;;;;22.35;5.63;;;19.00;99.90;;;;;;4978387;28;20321;-73
2023/06/26 06:30:09;;;;;;;14.55;4.97;;;19.10;99.90;;;;;;4980623;28;20041;-74
2023/06/26 06:32:35;;;;;;;17.25;5.28;;;19.00;99.90;;;;;;4982639;28;20506;-72
2023/06/26 06:35:08;;;;;;;18.02;5.45;;;19.10;99.90;;;;;;4983127;28;20566;-73
2023/06/26 06:37:34;;;;;;;19.65;5.10;;;19.30;99.90;;;;;;4978226;28;20096;-74
2023/06/26 06:39:59;;;;;;;19.05;4.85;;;19.30;99.90;;;;;;4979623;28;20042;-73
2023/06/26 06:42:25;;;;;;;14.55;4.10;;;19.50;99.90;;;;;;4980148;28;20037;-72
2023/06/26 06:44:51;;;;;;;21.20;4.95;;;19.70;99.90;;;;;;4972170;28;20084;-74
2023/06/26 06:47:16;;;;;;;15.88;3.63;;;20.00;99.90;;;;;;4978381;28;20042;-73
2023/06/26 06:49:42;;;;;;;14.90;3.90;;;20.30;99.90;;;;;;4974596;28;20057;-72
2023/06/26 06:52:08;;;;;;;12.27;2.97;;;20.60;99.90;;;;;;4975725;28;20554;-73
2023/06/26 06:54:54;;;;;;;12.05;2.47;;;20.40;1.00;;;;;;4971926;28;20129;-73
2023/06/26 06:57:21;;;;;;;11.75;2.83;;;20.30;99.90;;;;;;4975391;28;20054;-73
2023/06/26 06:59:48;;;;;;;11.85;2.60;;;20.20;99.90;;;;;;4980328;28;20042;-72
2023/06/26 07:02:16;;;;;;;9.77;2.10;;;20.30;99.90;;;;;;4981298;28;20049;-72
2023/06/26 07:04:41;;;;;;;9.52;1.95;;;20.50;99.90;;;;;;4977360;28;20046;-72
2023/06/26 07:07:08;;;;;;;9.98;2.25;;;20.60;99.90;;;;;;4984674;28;20042;-72
2023/06/26 07:09:34;;;;;;;8.95;1.75;;;20.70;99.90;;;;;;4965192;28;20058;-72
2023/06/26 07:12:00;;;;;;;11.57;1.75;;;20.80;99.90;;;;;;4978896;28;20145;-72
2023/06/26 07:14:26;;;;;;;11.38;2.03;;;20.80;99.90;;;;;;4977458;28;20143;-71
2023/06/26 07:16:51;;;;;;;11.75;2.20;;;21.10;95.80;;;;;;4983338;28;20050;-72
2023/06/26 07:19:17;;;;;;;7.43;1.48;;;21.30;2.10;;;;;;4978078;28;20132;-72
2023/06/26 07:21:44;;;;;;;11.35;1.33;;;21.50;99.90;;;;;;4978766;28;20050;-72
2023/06/26 07:24:10;;;;;;;9.43;1.65;;;21.50;99.90;;;;;;4980618;28;20049;-72
2023/06/26 07:26:36;;;;;;;9.93;1.77;;;21.60;99.90;;;;;;4982179;28;20760;-75
2023/06/26 07:29:02;;;;;;;9.43;1.83;;;21.70;74.40;;;;;;4983307;28;20058;-71
2023/06/26 07:31:28;;;;;;;5.95;1.15;;;21.50;99.90;;;;;;4985191;28;20173;-74
2023/06/26 07:33:54;;;;;;;7.35;1.42;;;21.60;1.00;;;;;;4985222;28;20056;-73
2023/06/26 07:36:20;;;;;;;7.22;1.42;;;21.60;99.90;;;;;;4978215;28;20111;-73
2023/06/26 07:38:45;;;;;;;5.95;1.10;;;21.60;99.90;;;;;;4977841;28;20046;-73
2023/06/26 07:41:11;;;;;;;6.43;1.08;;;21.70;99.90;;;;;;4978420;28;20655;-73
2023/06/26 07:43:37;;;;;;;7.15;1.40;;;21.80;99.90;;;;;;4978776;28;20073;-73
2023/06/26 07:46:03;;;;;;;8.68;1.00;;;22.00;99.90;;;;;;4978429;28;20045;-73
2023/06/26 07:48:29;;;;;;;6.45;0.80;;;21.90;99.90;;;;;;4966693;28;20819;-71
2023/06/26 07:50:54;;;;;;;5.57;0.90;;;22.00;99.90;;;;;;4974488;28;20050;-73
2023/06/26 07:53:20;;;;;;;6.90;0.98;;;21.90;99.90;;;;;;4977671;28;20054;-73
2023/06/26 07:55:46;;;;;;;7.38;1.10;;;21.80;99.90;;;;;;4980565;28;20042;-73
2023/06/26 07:58:12;;;;;;;6.63;0.90;;;22.00;99.90;;;;;;4976919;28;20269;-72
2023/06/26 08:00:38;;;;;;;5.05;0.85;;;22.30;99.90;;;;;;4978322;28;20053;-72
2023/06/26 08:03:04;;;;;;;4.65;0.77;;;22.30;99.90;;;;;;4977201;28;20156;-72
2023/06/26 08:05:30;;;;;;;6.70;1.02;;;22.50;99.90;;;;;;4978132;28;20034;-71
2023/06/26 08:07:56;;;;;;;7.07;1.10;;;22.70;99.90;;;;;;4976394;28;20691;-73
2023/06/26 08:10:22;;;;;;;7.53;1.33;;;22.40;99.90;;;;;;4979305;28;20057;-72
2023/06/26 08:12:50;;;;;;;6.10;1.20;;;22.20;99.90;;;;;;4978289;28;20042;-72
2023/06/26 08:15:16;;;;;;;4.95;1.00;;;22.30;99.90;;;;;;4982678;28;20100;-72
2023/06/26 08:17:41;;;;;;;6.40;0.80;;;22.20;99.90;;;;;;4980138;28;20300;-73
2023/06/26 08:20:08;;;;;;;5.47;0.75;;;22.50;99.90;;;;;;4977436;28;20557;-70
2023/06/26 08:22:34;;;;;;;6.70;0.90;;;22.30;99.90;;;;;;4976925;28;20258;-71
2023/06/26 08:25:00;;;;;;;6.22;0.68;;;22.20;1.00;;;;;;4981305;28;20054;-72
2023/06/26 08:27:25;;;;;;;7.13;1.00;;;22.40;1.00;;;;;;4957515;28;20077;-72
2023/06/26 08:29:51;;;;;;;6.07;0.75;;;22.80;1.00;;;;;;4980909;28;20112;-75
2023/06/26 08:32:17;;;;;;;4.65;0.88;;;23.10;1.00;;;;;;4979255;28;20114;-73
2023/06/26 08:34:42;;;;;;;5.60;0.70;;;22.70;99.90;;;;;;4981265;28;20049;-72
2023/06/26 08:37:11;;;;;;;6.80;1.08;;;22.30;99.90;;;;;;4980554;28;20035;-73
2023/06/26 08:39:37;;;;;;;4.93;0.80;;;22.60;99.90;;;;;;4983450;28;20057;-73
2023/06/26 08:42:03;;;;;;;4.45;0.70;;;22.80;1.00;;;;;;4982559;28;20483;-72
2023/06/26 08:44:29;;;;;;;3.97;0.60;;;22.70;99.90;;;;;;4965981;28;20079;-73
2023/06/26 08:46:55;;;;;;;6.88;0.73;;;22.80;99.90;;;;;;4983072;28;20050;-72
2023/06/26 08:49:39;;;;;;;7.53;0.80;;;22.60;99.90;;;;;;4981174;28;20054;-72
2023/06/26 08:52:29;;;;;;;4.70;0.90;;;22.80;99.90;;;;;;4978843;28;20058;-73
2023/06/26 08:54:58;;;;;;;8.15;1.10;;;22.60;99.90;;;;;;4972576;28;20381;-73
2023/06/26 08:57:25;;;;;;;5.35;1.00;;;22.20;99.90;;;;;;4975987;28;20034;-73
2023/06/26 08:59:52;;;;;;;7.05;1.05;;;22.30;99.90;;;;;;4960480;28;20057;-73
2023/06/26 09:02:20;;;;;;;5.53;0.88;;;22.20;99.90;;;;;;4986140;28;20078;-73
2023/06/26 09:04:47;;;;;;;4.00;0.82;;;21.80;99.90;;;;;;4975696;28;20085;-72
2023/06/26 09:07:13;;;;;;;4.53;0.73;;;22.30;99.90;;;;;;4977349;28;20431;-72
2023/06/26 09:09:39;;;;;;;6.07;0.98;;;22.30;99.90;;;;;;4975311;28;20041;-73
2023/06/26 09:12:05;;;;;;;5.70;0.70;;;22.80;99.90;;;;;;4975925;28;20045;-73
2023/06/26 09:14:31;;;;;;;6.00;0.68;;;23.30;99.90;;;;;;4959900;28;20065;-72
2023/06/26 09:16:57;;;;;;;6.50;0.75;;;23.40;99.90;;;;;;4977779;28;20042;-73
2023/06/26 09:19:23;;;;;;;4.25;0.60;;;23.60;99.90;;;;;;4977897;28;20049;-73
2023/06/26 09:21:51;;;;;;;3.65;0.68;;;23.60;99.90;;;;;;4959103;28;20868;-72
2023/06/26 09:24:17;;;;;;;4.13;0.70;;;23.50;99.90;;;;;;4980838;28;20057;-72
2023/06/26 09:26:44;;;;;;;3.40;0.80;;;23.40;99.90;;;;;;4977599;28;20246;-73
2023/06/26 09:29:10;;;;;;;4.47;0.57;;;23.00;99.90;;;;;;4972786;28;20049;-73
2023/06/26 09:31:39;;;;;;;3.83;0.60;;;23.20;99.90;;;;;;4968500;28;20519;-72
2023/06/26 09:34:05;;;;;;;3.75;0.73;;;23.00;99.90;;;;;;4978166;28;20044;-71
2023/06/26 09:36:33;;;;;;;2.85;0.50;;;22.80;99.90;;;;;;4984571;28;20069;-73
2023/06/26 09:39:00;;;;;;;5.07;0.80;;;22.80;99.90;;;;;;4971037;28;20234;-72
2023/06/26 09:41:27;;;;;;;4.28;1.23;;;22.90;99.90;;;;;;4983277;28;20065;-71
2023/06/26 09:43:52;;;;;;;4.35;0.90;;;23.00;99.90;;;;;;4986037;28;20053;-72
2023/06/26 09:46:28;;;;;;;5.72;1.00;;;23.10;99.90;;;;;;4978151;28;20069;-73
2023/06/26 09:49:05;;;;;;;4.00;1.08;;;23.00;99.90;;;;;;4975780;28;20531;-73
2023/06/26 09:51:32;;;;;;;4.68;0.90;;;22.90;99.90;;;;;;4977159;28;20058;-72
2023/06/26 09:53:59;;;;;;;4.45;0.93;;;22.90;99.90;;;;;;4971304;28;20061;-73
2023/06/26 09:56:25;;;;;;;5.20;0.90;;;23.50;99.90;;;;;;4976229;28;20042;-72
2023/06/26 09:58:58;;;;;;;5.13;0.88;;;23.90;99.90;;;;;;4974634;28;20501;-72
2023/06/26 10:01:24;;;;;;;3.75;0.70;;;24.10;99.90;;;;;;4972760;28;20038;-72
2023/06/26 10:03:51;;;;;;;5.30;0.65;;;23.90;99.90;;;;;;4976825;28;20049;-72
2023/06/26 10:06:22;;;;;;;5.38;0.70;;;23.40;99.90;;;;;;4971896;28;20046;-71
2023/06/26 10:08:49;;;;;;;4.35;1.02;;;23.60;99.90;;;;;;4975836;28;20280;-73
2023/06/26 10:11:20;;;;;;;6.35;0.90;;;23.60;99.90;;;;;;4980000;28;20050;-74
2023/06/26 10:13:49;;;;;;;4.50;0.80;;;23.40;99.90;;;;;;4955810;28;20132;-71
2023/06/26 10:16:21;;;;;;;4.90;0.80;;;23.70;99.90;;;;;;4978843;28;20077;-72
2023/06/26 10:18:49;;;;;;;;;;;23.80;99.90;;;;;;4977169;28;20046;-72
2023/06/26 10:21:15;;;;;;;4.13;0.80;;;24.20;99.90;;;;;;4976357;28;19929;-72
2023/06/26 10:23:43;;;;;;;2.83;0.70;;;23.90;99.90;;;;;;4974724;28;20058;-72
2023/06/26 10:26:11;;;;;;;5.93;0.98;;;23.30;99.90;;;;;;4977812;28;20049;-73
2023/06/26 10:28:38;;;;;;;5.07;0.95;;;23.00;99.90;;;;;;4976777;28;20050;-71
2023/06/26 10:31:06;;;;;;;3.97;0.80;;;22.40;99.90;;;;;;4977508;28;20185;-71
2023/06/26 10:33:32;;;;;;;7.30;0.90;;;22.70;99.90;;;;;;4978863;28;20262;-77
2023/06/26 10:36:18;;;;;;;6.15;1.10;;;23.00;99.90;;;;;;4976305;28;20046;-74
2023/06/26 10:39:05;;;;;;;5.35;0.75;;;22.70;99.90;;;;;;4976790;28;20054;-72
2023/06/26 10:41:43;;;;;;;6.72;1.15;;;22.90;99.90;;;;;;4976488;28;20116;-72
2023/06/26 10:44:16;;;;;;;6.05;1.10;;;23.30;99.90;;;;;;4960656;28;20678;-71
2023/06/26 10:46:58;;;;;;;4.80;1.08;;;23.10;99.90;;;;;;4971804;28;20569;-72
2023/06/26 10:49:28;;;;;;;6.65;0.80;;;22.70;99.90;;;;;;4979984;28;20121;-72
2023/06/26 10:51:57;;;;;;;3.78;0.60;;;22.90;99.90;;;;;;4957723;28;20685;-72
2023/06/26 10:54:23;;;;;;;2.70;0.68;;;23.60;99.90;;;;;;4974805;28;20125;-72
2023/06/26 10:56:50;;;;;;;4.22;0.82;;;22.90;99.90;;;;;;4979564;28;20042;-73
2023/06/26 10:59:18;;;;;;;2.40;0.75;;;22.70;99.90;;;;;;4985403;28;20283;-72
2023/06/26 11:01:45;;;;;;;4.53;0.73;;;22.70;99.90;;;;;;4978206;28;20042;-71
2023/06/26 11:04:14;;;;;;;3.35;1.05;;;22.90;99.90;;;;;;4976361;28;20120;-72
2023/06/26 11:06:40;;;;;;;3.45;1.00;;;22.70;99.90;;;;;;4976036;28;20042;-72
2023/06/26 11:09:06;;;;;;;5.07;1.00;;;23.40;99.90;;;;;;4977130;28;20046;-73
2023/06/26 11:11:54;;;;;;;4.93;0.88;;;23.50;99.90;;;;;;4975761;28;20703;-71
2023/06/26 11:14:21;;;;;;;4.70;1.08;;;23.30;99.90;;;;;;4977769;28;20050;-72
2023/06/26 11:16:47;;;;;;;2.30;0.82;;;23.40;99.90;;;;;;4977672;28;20386;-73
2023/06/26 11:19:14;;;;;;;4.25;1.08;;;23.80;99.90;;;;;;4960178;28;20254;-72
2023/06/26 11:21:40;;;;;;;3.63;0.90;;;23.40;99.90;;;;;;4973964;28;20426;-73
2023/06/26 11:24:07;;;;;;;4.78;1.02;;;23.50;99.90;;;;;;4981496;28;20101;-74
2023/06/26 11:26:43;;;;;;;4.90;1.20;;;23.90;99.90;;;;;;4982512;28;20105;-73
2023/06/26 11:29:10;;;;;;;3.95;1.20;;;24.00;99.90;;;;;;4986884;28;20038;-73
2023/06/26 11:31:38;;;;;;;5.70;0.85;;;23.90;99.90;;;;;;4962331;28;20084;-72
2023/06/26 11:34:11;;;;;;;4.65;0.70;;;23.30;99.90;;;;;;4975198;28;20074;-73
2023/06/26 11:36:42;;;;;;;3.53;0.90;;;24.00;99.90;;;;;;4979520;28;20050;-72
2023/06/26 11:39:08;;;;;;;6.45;0.80;;;24.40;99.90;;;;;;4953085;28;20317;-73
2023/06/26 11:41:38;;;;;;;5.07;1.00;;;24.80;99.90;;;;;;4954074;28;20596;-71
2023/06/26 11:44:07;;;;;;;3.50;0.80;;;25.00;99.90;;;;;;4973990;28;20042;-72
2023/06/26 11:46:34;;;;;;;5.28;0.65;;;24.60;99.90;;;;;;4976759;28;20049;-72
2023/06/26 11:49:02;;;;;;;3.08;0.75;;;24.40;99.90;;;;;;4977513;28;20427;-73
2023/06/26 11:51:28;;;;;;;4.07;0.73;;;24.00;99.90;;;;;;4976396;28;20069;-74
2023/06/26 11:53:54;;;;;;;5.32;0.63;;;24.50;99.90;;;;;;4975412;28;20238;-73
2023/06/26 11:56:22;;;;;;;5.47;0.88;;;24.60;99.90;;;;;;4938464;28;20582;-71
2023/06/26 11:59:17;;;;;;;6.28;0.90;;;24.70;99.90;;;;;;4974179;28;20437;-73
2023/06/26 12:01:47;;;;;;;6.47;0.75;;;25.00;99.90;;;;;;4963002;28;20050;-73
2023/06/26 12:04:16;;;;;;;5.88;0.90;;;25.00;99.90;;;;;;4979748;28;20037;-73
2023/06/26 12:06:50;;;;;;;7.90;0.70;;;24.30;99.90;;;;;;4977823;28;20509;-72
2023/06/26 12:09:21;;;;;;;4.85;0.60;;;24.60;99.90;;;;;;4980690;28;20449;-74
2023/06/26 12:11:51;;;;;;;7.93;0.93;;;24.70;99.90;;;;;;4981072;28;20556;-72
2023/06/26 12:14:19;;;;;;;4.93;0.70;;;25.00;99.90;;;;;;4992809;28;20158;-73
2023/06/26 12:16:45;;;;;;;5.75;0.90;;;25.10;99.90;;;;;;4981179;28;20080;-73
2023/06/26 12:19:11;;;;;;;3.22;0.63;;;24.20;99.90;;;;;;4975655;28;20058;-72
2023/06/26 12:21:36;;;;;;;5.60;1.13;;;24.60;99.90;;;;;;4977307;28;20034;-71
2023/06/26 12:24:03;;;;;;;3.65;0.60;;;24.40;99.90;;;;;;4997325;28;20114;-74
2023/06/26 12:26:30;;;;;;;5.93;0.70;;;24.70;99.90;;;;;;5001963;28;20039;-76
2023/06/26 12:29:06;;;;;;;6.30;0.60;;;24.90;99.90;;;;;;4997631;28;20041;-75
2023/06/26 12:31:32;;;;;;;4.95;0.77;;;25.10;99.90;;;;;;4994368;28;20050;-73
2023/06/26 12:33:59;;;;;;;4.35;0.60;;;24.90;99.90;;;;;;4984320;28;20041;-74
2023/06/26 12:36:25;;;;;;;8.35;0.90;;;24.70;99.90;;;;;;4981491;28;20053;-73
2023/06/26 12:38:53;;;;;;;5.68;0.80;;;24.60;99.90;;;;;;4981394;28;20050;-73
2023/06/26 12:41:20;;;;;;;3.47;0.50;;;24.30;99.90;;;;;;4987040;28;20506;-73
2023/06/26 12:43:46;;;;;;;5.38;0.65;;;24.40;99.90;;;;;;4979661;28;20050;-72
2023/06/26 12:46:12;;;;;;;6.20;0.70;;;24.50;99.90;;;;;;4982015;28;20057;-72